Latest Weather Observations for Thargomindah

IDQ60801

Issued at 6:35 pm EST Wednesday 20 August 2014 (issued every 30 minutes, with the page automatically refreshed every 10 minutes)

About weather observations | Map of weather stations | Latest weather observations for QLD | Other Formats
Station Details ID: 045025 Name: THARGOMINDAH AIRPORT Lat: -27.99 Lon: 143.81 Height: 130.89 m
Data from the previous 72 hours. | See also: Recent months at Thargomindah
Date/Time
EST
Temp
°C
App
Temp
°C
Dew
Point
Rel
Hum
%
Delta-T
°C
Wind Press
QNH
hPa
Press
MSL
hPa
Rain
since 9 am
mm
Dir
 
Spd
km/h
Gust
km/h
Spd
kts
Gust
kts
20/06:30pm 18.6 15.2 5.8 43 6.3 SE 13 15 7 8 1020.7 - 0.0
20/06:00pm 19.0 15.0 5.1 40 6.8 SE 15 19 8 10 1020.4 1020.2 0.0
20/05:30pm 19.3 15.8 5.4 40 6.8 ESE 13 20 7 11 1020.2 - 0.0
20/05:00pm 19.8 16.2 5.1 38 7.2 SE 13 20 7 11 1019.8 - 0.0
20/04:30pm 20.2 16.2 4.7 36 7.6 ESE 15 22 8 12 1019.7 - 0.0
20/04:00pm 19.6 16.1 5.3 39 7.0 SE 13 19 7 10 1019.8 - 0.0
20/03:30pm 19.8 17.0 5.1 38 7.2 SSE 9 17 5 9 1019.8 - 0.0
20/03:00pm 19.9 17.6 5.9 40 7.0 E 7 11 4 6 1020.0 1019.9 0.0
20/02:30pm 19.9 16.1 5.9 40 7.0 S 15 19 8 10 1020.2 - 0.0
20/02:00pm 20.0 18.1 7.7 45 6.4 E 7 13 4 7 1020.5 - 0.0
20/01:30pm 19.4 16.3 5.5 40 6.9 NE 11 15 6 8 1020.8 - 0.0
20/01:00pm 19.1 16.6 8.1 49 5.7 ESE 11 17 6 9 1021.2 - 0.0
20/12:30pm 18.2 15.6 7.6 50 5.4 ESE 11 20 6 11 1021.8 - 0.0
20/12:00pm 18.5 15.9 7.6 49 5.5 E 11 17 6 9 1022.2 1022.0 0.0
20/11:30am 18.1 15.6 8.4 53 5.0 E 11 19 6 10 1022.6 - 0.0
20/11:00am 17.5 15.2 8.9 57 4.5 E 11 17 6 9 1023.0 - 0.0
20/10:30am 16.8 14.0 8.5 58 4.3 E 13 17 7 9 1023.3 - 0.0
20/10:00am 15.9 12.7 8.4 61 3.8 ESE 15 22 8 12 1023.4 - 0.0
20/09:30am 14.8 12.3 8.3 65 3.3 ESE 11 17 6 9 1023.2 - 0.0
20/09:00am 13.3 10.8 8.2 71 2.5 ESE 11 19 6 10 1023.3 1023.1 0.0
20/08:30am 11.3 8.1 7.0 75 2.1 SE 13 17 7 9 1023.1 - 0.0
20/08:00am 10.3 7.9 6.8 79 1.7 SSE 9 13 5 7 1022.9 - 0.0
20/07:30am 9.0 7.4 6.4 84 1.2 SE 4 7 2 4 1022.8 - 0.0
20/07:00am 7.8 5.7 5.9 88 0.9 S 6 7 3 4 1022.5 - 0.0
20/06:30am 7.8 5.5 5.9 88 0.9 S 7 9 4 5 1022.2 - 0.0
20/06:00am 8.3 5.7 6.3 87 0.9 S 9 11 5 6 1021.9 1021.7 0.0
20/05:30am 8.6 6.1 6.4 86 1.0 S 9 11 5 6 1021.8 - 0.0
20/05:00am 8.7 7.2 7.0 89 0.8 S 4 11 2 6 1021.7 - 0.0
20/04:30am 8.5 7.8 6.8 89 0.8 CALM 0 0 0 0 1021.7 - 0.0
20/04:00am 8.2 7.5 6.8 91 0.7 CALM 0 0 0 0 1021.6 - 0.0
20/03:30am 8.0 7.1 6.0 87 0.9 CALM 0 0 0 0 1021.5 - 0.0
20/03:00am 8.5 6.4 6.0 84 1.1 S 6 7 3 4 1021.5 1021.3 0.0
20/02:30am 9.3 7.2 6.6 83 1.3 S 7 9 4 5 1021.6 - 0.0
20/02:00am 9.7 7.6 6.6 81 1.5 S 7 9 4 5 1021.6 - 0.0
20/01:30am 10.2 7.7 6.7 79 1.7 S 9 11 5 6 1021.6 - 0.0
20/01:00am 10.2 7.7 6.7 79 1.7 S 9 9 5 5 1021.6 - 0.0
20/12:30am 10.5 8.1 6.8 78 1.8 S 9 11 5 6 1021.7 - 0.0
20/12:00am 11.1 8.3 7.0 76 2.0 S 11 13 6 7 1021.8 1021.6 0.0
 
Date/Time
EST
Temp
°C
App
Temp
°C
Dew
Point
Rel
Hum
%
Delta-T
°C
Wind Press
QNH
hPa
Press
MSL
hPa
Rain
since 9 am
mm
Dir
 
Spd
km/h
Gust
km/h
Spd
kts
Gust
kts
19/11:30pm 11.6 8.8 6.9 73 2.3 S 11 13 6 7 1021.8 - 0.0
19/11:00pm 12.2 9.4 7.1 71 2.5 S 11 15 6 8 1021.8 - 0.0
19/10:30pm 12.4 9.2 6.9 69 2.7 S 13 15 7 8 1021.7 - 0.0
19/10:00pm 12.7 9.9 7.0 68 2.8 S 11 13 6 7 1021.8 - 0.0
19/09:30pm 13.3 10.0 6.6 64 3.2 SSW 13 17 7 9 1021.7 - 0.0
19/09:00pm 14.1 10.4 6.5 60 3.7 SSW 15 19 8 10 1021.7 1021.4 0.0
19/08:30pm 14.0 11.2 6.8 62 3.5 SSW 11 15 6 8 1021.6 - 0.0
19/08:00pm 14.2 11.4 6.8 61 3.6 SSW 11 15 6 8 1021.4 - 0.0
19/07:30pm 14.8 11.9 6.4 57 4.1 SW 11 15 6 8 1021.1 - 0.0
19/07:00pm 15.0 12.1 6.3 56 4.2 SW 11 13 6 7 1020.8 - 0.0
19/06:30pm 15.6 12.9 5.8 52 4.7 WSW 9 11 5 6 1020.5 - 0.0
19/06:00pm 16.5 13.4 5.5 48 5.3 SW 11 15 6 8 1020.2 1020.0 0.0
19/05:30pm 17.4 14.1 4.7 43 6.1 SSW 11 20 6 11 1020.0 - 0.0
19/05:00pm 18.3 14.7 5.2 42 6.4 SW 13 20 7 11 1019.9 - 0.0
19/04:30pm 18.3 14.6 4.5 40 6.6 SSW 13 19 7 10 1019.8 - 0.0
19/04:00pm 18.4 14.3 4.2 39 6.8 SSW 15 24 8 13 1019.7 - 0.0
19/03:30pm 18.4 13.9 4.2 39 6.8 S 17 24 9 13 1019.7 - 0.0
19/03:00pm 18.1 14.7 3.9 39 6.7 SW 11 20 6 11 1019.9 1019.7 0.0
19/02:30pm 18.1 14.5 5.0 42 6.3 SSW 13 20 7 11 1020.2 - 0.0
19/02:00pm 17.7 13.8 5.3 44 6.0 SW 15 24 8 13 1020.3 - 0.0
19/01:30pm 17.4 14.3 5.4 45 5.8 SW 11 19 6 10 1020.6 - 0.0
19/01:00pm 16.7 13.2 5.3 47 5.5 SW 13 22 7 12 1020.9 - 0.0
19/12:30pm 16.3 13.2 5.6 49 5.2 S 11 17 6 9 1021.4 - 0.0
19/12:00pm 16.2 14.2 6.3 52 4.8 S 6 20 3 11 1021.9 1021.7 0.0
19/11:30am 15.5 12.9 6.2 54 4.5 SW 9 15 5 8 1022.2 - 0.0
19/11:00am 14.6 12.0 5.9 56 4.2 S 9 19 5 10 1022.5 - 0.0
19/10:30am 13.3 9.9 5.7 60 3.6 S 13 19 7 10 1022.8 - 0.0
19/10:00am 12.5 9.5 5.9 64 3.1 S 11 15 6 8 1022.9 - 0.0
19/09:30am 11.2 7.9 4.7 64 3.0 S 11 13 6 7 1023.1 - 0.0
19/09:00am 10.3 5.9 4.7 68 2.5 S 17 20 9 11 1022.9 1022.7 0.0
19/08:30am 9.2 5.2 4.8 74 2.0 SSW 15 19 8 10 1022.5 - 0.0
19/08:00am 7.6 4.7 4.4 80 1.4 SW 9 15 5 8 1022.2 - 0.0
19/07:30am 6.1 3.5 4.1 87 0.9 WSW 7 9 4 5 1021.9 - 0.0
19/07:00am 4.9 2.1 3.4 90 0.6 WSW 7 9 4 5 1021.6 - 0.0
19/06:30am 5.2 2.5 3.5 89 0.7 WSW 7 7 4 4 1021.3 - 0.0
19/06:00am 5.7 2.7 4.0 89 0.7 WSW 9 11 5 6 1021.0 1020.7 0.0
19/05:30am 5.7 2.3 3.9 88 0.8 WSW 11 11 6 6 1020.7 - 0.0
19/05:00am 5.9 2.5 4.1 88 0.8 WSW 11 11 6 6 1020.7 - 0.0
19/04:30am 6.1 3.1 4.1 87 0.9 WSW 9 11 5 6 1020.8 - 0.0
19/04:00am 6.4 3.0 4.1 85 1.0 WSW 11 11 6 6 1020.9 - 0.0
19/03:30am 6.5 3.5 4.2 85 1.0 WSW 9 9 5 5 1020.9 - 0.0
19/03:00am 6.8 3.9 4.5 85 1.0 W 9 11 5 6 1021.1 1020.9 0.0
19/02:30am 7.2 4.3 4.5 83 1.2 WSW 9 11 5 6 1021.1 - 0.0
19/02:00am 7.6 4.3 4.7 82 1.3 WSW 11 13 6 7 1021.2 - 0.0
19/01:30am 7.7 4.8 4.7 81 1.3 SW 9 11 5 6 1021.5 - 0.0
19/01:00am 8.2 4.9 4.8 79 1.5 SW 11 11 6 6 1021.5 - 0.0
19/12:30am 8.6 5.4 5.0 78 1.6 WSW 11 13 6 7 1021.6 - 0.0
19/12:00am 8.7 5.5 5.1 78 1.6 WSW 11 15 6 8 1021.8 1021.6 0.0
 
Date/Time
EST
Temp
°C
App
Temp
°C
Dew
Point
Rel
Hum
%
Delta-T
°C
Wind Press
QNH
hPa
Press
MSL
hPa
Rain
since 9 am
mm
Dir
 
Spd
km/h
Gust
km/h
Spd
kts
Gust
kts
18/11:30pm 8.9 5.7 5.3 78 1.6 WSW 11 13 6 7 1021.9 - 0.0
18/11:00pm 9.1 6.3 5.1 76 1.8 WSW 9 11 5 6 1022.0 - 0.0
18/10:30pm 9.3 6.5 5.3 76 1.8 W 9 11 5 6 1021.8 - 0.0
18/10:00pm 9.9 7.1 5.1 72 2.2 WSW 9 9 5 5 1021.7 - 0.0
18/09:30pm 10.2 7.0 5.2 71 2.3 SW 11 11 6 6 1021.5 - 0.0
18/09:00pm 10.5 7.7 5.3 70 2.4 SW 9 11 5 6 1021.5 1021.2 0.0
18/08:30pm 11.2 8.0 5.3 67 2.7 SW 11 13 6 7 1021.1 - 0.0
18/08:00pm 11.5 8.8 5.4 66 2.8 WSW 9 11 5 6 1020.8 - 0.0
18/07:30pm 12.1 8.9 5.0 62 3.3 SW 11 13 6 7 1020.6 - 0.0
18/07:00pm 13.1 9.8 4.8 57 3.9 SW 11 15 6 8 1020.1 - 0.0
18/06:30pm 13.9 9.0 3.9 51 4.6 SW 19 26 10 14 1019.6 - 0.0
18/06:00pm 14.5 9.4 3.9 49 4.9 SW 20 28 11 15 1019.2 1019.0 0.0
18/05:30pm 15.3 9.7 3.5 45 5.4 SW 22 30 12 16 1018.9 - 0.0
18/05:00pm 16.0 10.3 3.1 42 5.9 SW 22 32 12 17 1018.6 - 0.0
18/04:30pm 16.3 10.4 3.7 43 5.9 SW 24 32 13 17 1018.4 - 0.0
18/04:00pm 16.4 10.4 3.5 42 6.0 SW 24 32 13 17 1018.2 - 0.0
18/03:30pm 16.4 10.5 4.1 44 5.8 SW 24 33 13 18 1018.0 - 0.0
18/03:00pm 16.4 10.5 3.8 43 5.9 SW 24 33 13 18 1018.0 1017.7 0.0
18/02:30pm 16.5 11.0 3.9 43 5.9 WSW 22 33 12 18 1018.0 - 0.0
18/02:00pm 15.9 10.3 3.4 43 5.8 SW 22 32 12 17 1018.2 - 0.0
18/01:30pm 15.7 9.4 3.8 45 5.5 SW 26 37 14 20 1018.3 - 0.0
18/01:00pm 15.9 10.7 5.5 50 5.0 WSW 22 32 12 17 1018.5 - 0.0
18/12:30pm 15.3 9.6 4.7 49 5.0 SW 24 33 13 18 1019.1 - 0.0
18/12:00pm 15.0 8.9 4.7 50 4.8 WSW 26 33 14 18 1019.7 1019.5 0.0
18/11:30am 15.1 10.0 5.9 54 4.4 SSW 22 30 12 16 1020.2 - 0.0
18/11:00am 13.9 8.2 4.8 54 4.3 SSW 24 32 13 17 1020.4 - 0.0
18/10:30am 13.3 8.8 5.9 61 3.5 SW 19 26 10 14 1020.6 - 0.0
18/10:00am 12.7 8.2 6.1 64 3.1 SSW 19 24 10 13 1020.6 - 0.0
18/09:30am 11.9 7.8 6.0 67 2.8 SW 17 24 9 13 1020.6 - 0.0
18/09:00am 10.7 6.9 5.9 72 2.2 SW 15 22 8 12 1020.5 1020.3 0.0
18/08:30am 9.5 6.4 5.5 76 1.8 SW 11 15 6 8 1020.3 - 0.0
18/08:00am 8.2 5.9 5.5 83 1.2 WSW 7 13 4 7 1019.8 - 0.0
18/07:30am 7.0 4.2 5.0 87 0.9 WSW 9 11 5 6 1019.6 - 0.0
18/07:00am 6.5 3.3 5.0 90 0.7 W 11 13 6 7 1019.3 - 0.0
18/06:30am 6.8 3.6 5.1 89 0.8 WSW 11 13 6 7 1018.8 - 0.0
18/06:00am 6.9 3.7 5.2 89 0.8 W 11 15 6 8 1018.5 1018.2 0.0
18/05:30am 7.0 4.2 5.0 87 0.9 W 9 11 5 6 1018.1 - 0.0
18/05:00am 7.3 4.1 5.1 86 1.0 W 11 13 6 7 1018.0 - 0.0
18/04:30am 7.9 5.1 5.0 82 1.3 W 9 11 5 6 1018.0 - 0.0
18/04:00am 8.9 5.7 5.3 78 1.6 WSW 11 15 6 8 1017.9 - 0.0
18/03:30am 9.7 5.5 5.5 75 1.9 SSW 17 20 9 11 1017.9 - 0.0
18/03:00am 10.0 5.8 5.6 74 2.0 SSW 17 22 9 12 1017.9 1017.6 0.0
18/02:30am 10.0 5.8 5.6 74 2.0 SW 17 20 9 11 1018.1 - 0.0
18/02:00am 9.7 6.3 5.9 77 1.8 SW 13 15 7 8 1018.3 - 0.0
18/01:30am 10.2 6.9 6.4 77 1.8 WSW 13 17 7 9 1018.4 - 0.0
18/01:00am 10.5 7.3 7.0 79 1.7 WSW 13 19 7 10 1018.3 - 0.0
18/12:30am 11.0 7.6 7.5 79 1.7 WSW 15 22 8 12 1018.1 - 0.0
18/12:00am 11.3 8.4 8.0 80 1.6 WSW 13 17 7 9 1018.1 1017.8 0.0
 
Date/Time
EST
Temp
°C
App
Temp
°C
Dew
Point
Rel
Hum
%
Delta-T
°C
Wind Press
QNH
hPa
Press
MSL
hPa
Rain
since 9 am
mm
Dir
 
Spd
km/h
Gust
km/h
Spd
kts
Gust
kts
17/11:30pm 11.6 7.9 8.1 79 1.7 WSW 17 20 9 11 1018.1 - 0.0
17/11:00pm 11.4 8.9 8.4 82 1.5 WSW 11 15 6 8 1018.1 - 0.0
17/10:30pm 11.7 9.3 8.6 81 1.5 WSW 11 15 6 8 1018.1 - 0.0
17/10:00pm 12.3 9.5 8.4 77 1.9 WSW 13 15 7 8 1018.0 - 0.0
17/09:30pm 12.7 10.0 8.8 77 2.0 WSW 13 15 7 8 1017.9 - 0.0
17/09:00pm 13.1 10.4 9.0 76 2.1 WSW 13 15 7 8 1017.7 1017.4 0.0
17/08:30pm 13.5 10.8 9.0 74 2.3 WSW 13 15 7 8 1017.5 - 0.0
17/08:00pm 14.0 11.2 8.6 70 2.7 WSW 13 19 7 10 1017.0 - 0.0
17/07:30pm 14.3 11.9 8.7 69 2.8 WSW 11 15 6 8 1016.6 - 0.0
17/07:00pm 14.9 12.5 8.8 67 3.1 WSW 11 17 6 9 1016.1 - 0.0

Other Formats:

Comma delimited format used in spreadsheet applications
http://www.bom.gov.au/fwo/IDQ60801/IDQ60801.95492.axf

JavaScript Object Notation format (JSON) in row-major order
http://www.bom.gov.au/fwo/IDQ60801/IDQ60801.95492.json